Arroyo, PR (00714)

5:59 AM AST on July 26, 2016 (GMT -0400)
tikolj | | Change Station

Elev 30 ft 17.97 °N, 66.06 °W | Updated 2 minutes ago

Light Thunderstorms and Rain
Light Thunderstorm Rain Mist
78.1 °F
Feels Like 81 °F
N
1.7
Wind Variable Wind from ESE

Today
High -- | Low -- °F
--% Chance of Precip.
Yesterday
High -- | Low -- °F
Precip. -- in
Pressure 29.98 in
Visibility 4.0 miles
Clouds Mostly Cloudy 2000 ft
Overcast 4000 ft
Heat Index 81 °F
Dew Point 77 °F
Humidity 96%
Rainfall 0.02 in
Snow Depth Not available.
6:00 AM 7:00 PM
Waning Gibbous, 56% visible
METAR TJSJ 260956Z 00000KT 4SM -TSRA BR BKN020CB OVC040 26/26 A2998 RMK AO2 TSB54RAB0859 SLP150 OCNL LTGICCG NE TS NE MOV NW P0000 T02610256 $
Pressure 29.98 in
Visibility 4.0 miles
Clouds Mostly Cloudy 2000 ft
Overcast 4000 ft
Heat Index 81 °F
Dew Point 77 °F
Humidity 96%
Rainfall 0.02 in
Snow Depth Not available.
6:00 AM 7:00 PM
Waning Gibbous, 56% visible
METAR TJSJ 260956Z 00000KT 4SM -TSRA BR BKN020CB OVC040 26/26 A2998 RMK AO2 TSB54RAB0859 SLP150 OCNL LTGICCG NE TS NE MOV NW P0000 T02610256 $

10-Day Weather Forecast

Almanac

Astronomy

Jul. 26, 2016 Rise Set
Actual Time
Civil Twilight
Nautical Twilight
Astronomical Twilight
Moon
Length of Visible Light
Length of Day
Tomorrow will be .
, % of the Moon is Illuminated

Today's Extremes

State Highs State Lows

Community

WunderPhotos

Upload Photos

1,927,557 photos uploaded!

WunderBlog® & News

Nearby

Air Quality

  Air Quality AQ Index Pollutant
Not available.

Snow Depth

Station Depth Elevation

Earthquake Activity

City Distance Mag. Time & Date
Minimum magnitude displayed is 2.5.

Coastal Water Temperatures

Place Temperature

Stations

Nearby Weather Stations

Station Location Temp. Windchill Dew Point Humidity Wind Precip. Elev Updated Type
                   

Watches & Warnings

There are currently no watches in effect.